• Join FlightAware (Why Join?)
  • Login
  • US Flag 
08:27PM EST


 

Airport Tracker/Info


-or-


 

Live Flight TrackerFlight Track Log ✈ FLG3350 ✈ 25-May-2012 ✈ KMSP - KDSM

Flight Track Log - Related Links

Times and Time Zones

All times are in EDT time to prevent confusion due to time zone crossing. See the FLG3350 flight status page for this flight to view local times or setup timezone preferences in your user account.

Time Position Orientation Groundspeed Altitude Reporting Facility
EDT Latitude Longitude Course Direction KTS MPH feet Rate Location/Type
07:14PM 44.8833 -93.2667 274° West 192 221 2,700  Level Minneapolis TRACON
07:14PM 44.8861 -93.3247 241° Southwest 210 242 4,400 2,340 Climbing FAA TRACON SMA TRACON (SMA)
07:15PM 44.8642 -93.3797 203° Southwest 261 300 5,800 2,460 Climbing FAA TRACON SMA TRACON (SMA)
07:16PM 44.8181 -93.4069 206° Southwest 263 303 7,700 2,460 Climbing FAA TRACON SMA TRACON (SMA)
07:16PM 44.7697 -93.4394 204° Southwest 283 326 9,200 2,400 Climbing FAA TRACON SMA TRACON (SMA)
07:17PM 44.7247 -93.4672 205° Southwest 286 329 11,000 1,500 Climbing FAA TRACON SMA TRACON (SMA)
07:18PM 44.6700 -93.5028 204° Southwest 320 368 11,200 660 Climbing FAA TRACON SMA TRACON (SMA)
07:18PM 44.6075 -93.5417 204° Southwest 360 414 11,900 1,740 Climbing FAA TRACON SMA TRACON (SMA)
07:19PM 44.5531 -93.5764 204° Southwest 351 404 13,500 2,640 Climbing FAA TRACON SMA TRACON (SMA)
07:20PM 44.4958 -93.6128 204° Southwest 323 372 15,400 2,280 Climbing FAA TRACON SMA TRACON (SMA)
07:20PM 44.4406 -93.6478 206° Southwest 314 361 16,600 1,500 Climbing FAA TRACON SMA TRACON (SMA)
07:21PM 44.3911 -93.6814 205° Southwest 321 369 17,400 1,800 Climbing FAA TRACON SMA TRACON (SMA)
07:22PM 44.3386 -93.7150 192° South 297 342 19,000 1,680 Climbing FAA TRACON SMA TRACON (SMA)
07:22PM 44.2825 -93.7319 180° South 305 351 19,700 960 Climbing FAA TRACON SMA TRACON (SMA)
07:23PM 44.2275 -93.7319 178° South 323 372 20,300 600 Climbing FAA TRACON SMA TRACON (SMA)
07:24PM 44.1603 -93.7289 178° South 345 397 20,500 360 Climbing FAA TRACON SMA TRACON (SMA)
07:25PM 44.0583 -93.7250 181° South 373 429 20,900 600 Climbing FAA TRACON SMA TRACON (SMA)
07:25PM 43.9856 -93.7269 178° South 380 437 21,500 600 Climbing FAA TRACON SMA TRACON (SMA)
07:27PM 43.7997 -93.7178 178° South 387 445 22,400 480 Climbing Minneapolis Center
07:28PM 43.6894 -93.7114 180° South 387 445 23,000 300 Climbing Minneapolis Center
07:29PM 43.5875 -93.7111 182° South 382 440 23,000  Level Minneapolis Center
07:30PM 43.4667 -93.7161 178° South 389 448 23,000  Level Minneapolis Center
07:31PM 43.3625 -93.7100 180° South 384 442 23,000  Level Minneapolis Center
07:32PM 43.2542 -93.7094 180° South 384 442 23,000 -300 Level Minneapolis Center
07:33PM 43.1500 -93.7089 178° South 397 457 22,500 -660 Descending Minneapolis Center
07:34PM 43.0333 -93.7028 179° South 405 466 21,700 -840 Descending Minneapolis Center
07:35PM 42.9169 -93.6994 179° South 422 486 20,900 -720 Descending Minneapolis Center
07:36PM 42.8067 -93.6961 179° South 417 480 20,300 -1,020 Descending Minneapolis Center
07:37PM 42.6919 -93.6928 179° South 417 480 18,900 -1,440 Descending Minneapolis Center
07:38PM 42.5775 -93.6894 175° South 417 480 17,500 -1,860 Descending Minneapolis Center
07:39PM 42.4692 -93.6778 180° South 399 459 15,300 -2,280 Descending Minneapolis Center
07:40PM 42.4047 -93.6775 178° South 375 432 14,000 -1,980 Descending Minneapolis Center
07:41PM 42.3194 -93.6744 184° South 356 410 12,300 -1,740 Descending Minneapolis Center
07:41PM 42.2653 -93.6797 178° South 373 429 11,500 -840 Descending Minneapolis Center
07:42PM 42.1819 -93.6767 177° South 335 386 11,100 -540 Descending Minneapolis Center
07:43PM 42.1383 -93.6736 196° South 313 360 10,700 -420 Descending Minneapolis Center
07:43PM 42.0947 -93.6903 210° Southwest 319 367 10,700 -120 Level Minneapolis Center
07:44PM 42.0592 -93.7181 206° Southwest 314 361 10,600 -300 Descending Minneapolis Center
07:44PM 42.0217 -93.7431 212° Southwest 297 342 10,400 -960 Descending Minneapolis Center
07:45PM 41.9547 -93.7983 206° Southwest 284 327 9,200 -1,500 Descending Minneapolis Center
07:46PM 41.8861 -93.8425 215° Southwest 284 327 7,400 -1,980 Descending Minneapolis Center
07:47PM 41.8339 -93.8922 206° Southwest 260 299 5,300 -1,080 Descending Minneapolis Center
07:48PM 41.7711 -93.9336 211° Southwest 260 299 5,300 8,820 Level Minneapolis Center
07:49PM 41.7086 -93.9831 209° Southwest 260 299 23,000 8,820 Climbing Minneapolis Center
07:50PM 41.6458 -94.0297 130° Southeast 260 299 23,000 -8,280 Level Minneapolis Center
07:52PM 41.5611 -93.8931 310° West 239 275 2,500  Descending Minneapolis Center
07:52PM 41.6458 -94.0297 132° Southeast 260 299 23,000  Climbing Minneapolis Center
07:53PM 41.5156 -93.8347 312° West 242 278 2,500  Descending Minneapolis Center
07:53PM 41.6458 -94.0297 129° Southeast 260 299 23,000 -300 Climbing Minneapolis Center
07:54PM 41.4889 -93.7708 64° Northeast 198 228 2,200 -13,200 Descending Minneapolis Center
07:55PM 41.5097 -93.7128 64° Northeast 149 171 1,700 -480 Descending Minneapolis Center